Time;durP1;ratioP1;P1;durP2;ratioP2;P2;SDS_P1;SDS_P2;PMS_P1;PMS_P2;Temp;Humidity;BMP_temperature;BMP_pressure;BME280_temperature;BME280_humidity;BME280_pressure;Samples;Min_cycle;Max_cycle;Signal;HPM_P1;HPM_P2
2023/05/11 00:02:14;;;;;;;6.77;6.37;;;11.80;99.90;;;;;;4999164;28;20262;-78
2023/05/11 00:04:41;;;;;;;9.10;8.60;;;11.80;99.90;;;;;;4981889;28;20356;-78
2023/05/11 00:07:08;;;;;;;8.50;8.00;;;11.80;99.90;;;;;;4998696;28;20227;-77
2023/05/11 00:09:37;;;;;;;8.37;7.73;;;11.80;99.90;;;;;;4981346;28;20231;-78
2023/05/11 00:12:06;;;;;;;8.10;7.60;;;11.80;99.90;;;;;;4991360;28;20230;-77
2023/05/11 00:14:33;;;;;;;8.50;8.00;;;11.80;99.90;;;;;;4998452;28;20712;-78
2023/05/11 00:17:00;;;;;;;7.73;7.30;;;11.80;99.90;;;;;;4997941;28;20224;-78
2023/05/11 00:19:27;;;;;;;8.47;7.97;;;11.80;99.90;;;;;;4980793;28;20200;-77
2023/05/11 00:21:54;;;;;;;6.93;6.53;;;11.80;99.90;;;;;;4998992;28;20672;-78
2023/05/11 00:24:21;;;;;;;8.40;7.87;;;11.80;99.90;;;;;;4980919;28;20270;-76
2023/05/11 00:26:47;;;;;;;3.70;3.40;;;11.80;99.90;;;;;;4980347;28;20227;-78
2023/05/11 00:29:16;;;;;;;7.93;7.43;;;11.80;99.90;;;;;;4998074;28;20200;-77
2023/05/11 00:31:46;;;;;;;5.73;5.33;;;11.90;99.90;;;;;;4997887;28;20196;-78
2023/05/11 00:34:13;;;;;;;8.10;7.60;;;11.80;99.90;;;;;;4997809;28;20228;-77
2023/05/11 00:36:41;;;;;;;4.57;4.37;;;11.90;99.90;;;;;;4980972;28;20620;-78
2023/05/11 00:39:08;;;;;;;6.90;6.50;;;11.90;99.90;;;;;;4981160;28;20287;-78
2023/05/11 00:41:35;;;;;;;6.83;6.33;;;11.90;99.90;;;;;;4998677;28;20230;-78
2023/05/11 00:44:02;;;;;;;6.53;6.13;;;11.80;99.90;;;;;;4980280;28;20229;-77
2023/05/11 00:46:31;;;;;;;5.90;5.50;;;11.80;99.90;;;;;;4997782;28;20235;-77
2023/05/11 00:48:58;;;;;;;7.00;6.60;;;11.80;99.90;;;;;;4980978;28;20212;-78
2023/05/11 00:51:25;;;;;;;8.13;7.60;;;11.80;99.90;;;;;;4998875;28;20558;-78
2023/05/11 00:53:52;;;;;;;7.90;7.40;;;11.80;99.90;;;;;;4980015;28;20217;-77
2023/05/11 00:56:20;;;;;;;8.27;7.57;;;11.80;99.90;;;;;;4997140;28;20739;-77
2023/05/11 00:58:48;;;;;;;6.43;6.03;;;11.80;99.90;;;;;;4980865;28;20255;-77
2023/05/11 01:01:16;;;;;;;6.23;5.93;;;11.80;99.90;;;;;;4980414;28;20210;-78
2023/05/11 01:03:45;;;;;;;6.37;6.07;;;11.80;99.90;;;;;;4978817;28;20227;-77
2023/05/11 01:06:17;;;;;;;7.57;7.00;;;11.80;99.90;;;;;;4979092;28;20220;-76
2023/05/11 01:08:50;;;;;;;6.90;5.27;;;11.80;99.90;;;;;;4987494;28;20231;-78
2023/05/11 01:11:25;;;;;;;5.17;4.87;;;11.90;99.90;;;;;;4987423;28;20210;-77
2023/05/11 01:13:58;;;;;;;4.20;3.90;;;11.80;99.90;;;;;;4955189;28;1054921;-77
2023/05/11 01:16:24;;;;;;;6.00;5.60;;;11.90;99.90;;;;;;4980638;28;20212;-77
2023/05/11 01:19:02;;;;;;;6.17;5.77;;;11.80;99.90;;;;;;4981172;28;20562;-78
2023/05/11 01:21:33;;;;;;;4.93;4.63;;;11.80;99.90;;;;;;4988693;28;20293;-77
2023/05/11 01:24:20;;;;;;;3.50;3.30;;;11.80;99.90;;;;;;4980841;28;20238;-78
2023/05/11 01:27:03;;;;;;;4.93;4.53;;;11.80;99.90;;;;;;4997674;28;20281;-78
2023/05/11 01:29:58;;;;;;;5.10;4.80;;;11.80;99.90;;;;;;4997883;28;20198;-78
2023/05/11 01:32:30;;;;;;;6.03;5.63;;;11.80;99.90;;;;;;4980042;28;20581;-77
2023/05/11 01:35:04;;;;;;;4.00;3.80;;;11.80;99.90;;;;;;4979627;28;20235;-77
2023/05/11 01:37:32;;;;;;;4.77;4.47;;;11.80;99.90;;;;;;4985845;28;20673;-77
2023/05/11 01:40:03;;;;;;;4.40;3.90;;;11.80;99.90;;;;;;4997658;28;20278;-78
2023/05/11 01:42:41;;;;;;;4.73;4.43;;;11.80;99.90;;;;;;4991225;28;20618;-78
2023/05/11 01:45:11;;;;;;;3.37;3.17;;;11.80;99.90;;;;;;4989205;28;20202;-78
2023/05/11 01:47:41;;;;;;;8.93;8.43;;;11.80;99.90;;;;;;4979410;28;20264;-78
2023/05/11 01:50:09;;;;;;;11.77;11.07;;;11.80;99.90;;;;;;4983738;28;20259;-78
2023/05/11 01:52:39;;;;;;;5.30;4.90;;;11.70;99.90;;;;;;4980370;28;20223;-78
2023/05/11 01:55:08;;;;;;;6.93;6.53;;;11.70;99.90;;;;;;4980327;28;20202;-78
2023/05/11 01:57:38;;;;;;;4.37;4.07;;;11.70;99.90;;;;;;4979874;28;20241;-78
2023/05/11 02:00:07;;;;;;;5.53;5.20;;;11.70;99.90;;;;;;4997742;28;20199;-77
2023/05/11 02:02:42;;;;;;;3.03;2.83;;;11.70;99.90;;;;;;4998159;28;20211;-77
2023/05/11 02:05:10;;;;;;;4.00;3.60;;;11.70;99.90;;;;;;4979749;28;20200;-77
2023/05/11 02:07:41;;;;;;;3.53;3.23;;;11.70;99.90;;;;;;4979759;28;20568;-77
2023/05/11 02:10:10;;;;;;;6.40;5.93;;;11.70;99.90;;;;;;4980579;28;20212;-77
2023/05/11 02:12:39;;;;;;;2.47;2.27;;;11.70;99.90;;;;;;4986909;28;20201;-78
2023/05/11 02:15:08;;;;;;;2.80;2.50;;;11.70;99.90;;;;;;4998762;28;20207;-77
2023/05/11 02:17:35;;;;;;;3.93;3.70;;;11.70;99.90;;;;;;4990788;28;20208;-78
2023/05/11 02:20:08;;;;;;;3.67;3.50;;;11.70;99.90;;;;;;4983960;28;20294;-78
2023/05/11 02:22:36;;;;;;;4.20;3.90;;;11.70;99.90;;;;;;4985116;28;20802;-78
2023/05/11 02:25:04;;;;;;;5.60;5.20;;;11.70;99.90;;;;;;5000534;28;20359;-77
2023/05/11 02:27:31;;;;;;;3.20;2.90;;;11.70;99.90;;;;;;4983160;28;20223;-77
2023/05/11 02:29:58;;;;;;;2.80;2.70;;;11.70;99.90;;;;;;4983528;28;20242;-78
2023/05/11 02:32:28;;;;;;;2.50;2.40;;;11.70;99.90;;;;;;4983664;28;20234;-77
2023/05/11 02:35:01;;;;;;;3.77;3.57;;;11.70;99.90;;;;;;4982966;28;20225;-77
2023/05/11 02:37:30;;;;;;;3.93;3.63;;;11.70;99.90;;;;;;4982579;28;20271;-77
2023/05/11 02:40:02;;;;;;;3.40;3.20;;;11.70;99.90;;;;;;4983657;28;20204;-78
2023/05/11 02:42:34;;;;;;;3.67;3.37;;;11.70;99.90;;;;;;4981943;28;20205;-78
2023/05/11 02:45:02;;;;;;;2.47;2.37;;;11.70;99.90;;;;;;4983992;28;20306;-77
2023/05/11 02:47:32;;;;;;;5.00;4.70;;;11.70;99.90;;;;;;4983189;28;20644;-78
2023/05/11 02:50:03;;;;;;;3.17;2.97;;;11.70;99.90;;;;;;4983524;28;20222;-78
2023/05/11 02:52:34;;;;;;;6.20;5.83;;;11.70;99.90;;;;;;4993796;28;20204;-80
2023/05/11 02:55:03;;;;;;;5.17;4.80;;;11.70;99.90;;;;;;4979502;28;20217;-79
2023/05/11 02:57:30;;;;;;;6.17;5.77;;;11.70;99.90;;;;;;4990335;28;20201;-79
2023/05/11 03:00:03;;;;;;;3.07;2.83;;;11.70;99.90;;;;;;4987205;28;20223;-79
2023/05/11 03:02:30;;;;;;;4.40;4.00;;;11.70;99.90;;;;;;4981160;28;20211;-78
2023/05/11 03:04:57;;;;;;;3.53;3.30;;;11.70;99.90;;;;;;4984561;28;20314;-80
2023/05/11 03:07:24;;;;;;;4.80;4.50;;;11.70;99.90;;;;;;4986323;28;20699;-78
2023/05/11 03:09:52;;;;;;;4.27;3.97;;;11.70;99.90;;;;;;4985009;28;20208;-78
2023/05/11 03:12:20;;;;;;;3.60;3.23;;;11.70;99.90;;;;;;5008690;28;20246;-79
2023/05/11 03:14:49;;;;;;;3.90;3.57;;;11.70;99.90;;;;;;4987471;28;20303;-79
2023/05/11 03:17:18;;;;;;;3.10;2.87;;;11.60;99.90;;;;;;4986987;28;20217;-79
2023/05/11 03:19:45;;;;;;;2.63;2.43;;;11.60;99.90;;;;;;5003298;28;20209;-78
2023/05/11 03:22:13;;;;;;;2.90;2.70;;;11.60;99.90;;;;;;4994583;28;20217;-78
2023/05/11 03:24:40;;;;;;;3.50;3.30;;;11.60;99.90;;;;;;4982272;28;20226;-81
2023/05/11 03:27:09;;;;;;;2.67;2.47;;;11.60;99.90;;;;;;4980829;28;20230;-80
2023/05/11 03:29:38;;;;;;;2.70;2.50;;;11.60;99.90;;;;;;4991877;28;20212;-81
2023/05/11 03:32:06;;;;;;;3.70;3.40;;;11.70;99.90;;;;;;4983374;28;20325;-80
2023/05/11 03:34:36;;;;;;;2.40;2.30;;;11.70;99.90;;;;;;4982176;28;20306;-78
2023/05/11 03:37:05;;;;;;;3.40;3.20;;;11.70;99.90;;;;;;4977481;28;20204;-78
2023/05/11 03:39:35;;;;;;;5.93;5.63;;;11.70;99.90;;;;;;4976488;28;20199;-79
2023/05/11 03:42:03;;;;;;;5.53;5.23;;;11.70;99.90;;;;;;4985337;28;20211;-77
2023/05/11 03:44:33;;;;;;;2.80;2.60;;;11.70;99.90;;;;;;4975879;28;20219;-76
2023/05/11 03:47:03;;;;;;;3.30;3.00;;;11.70;99.90;;;;;;4976400;28;20289;-79
2023/05/11 03:49:31;;;;;;;4.20;4.00;;;11.70;99.90;;;;;;4971768;28;20212;-76
2023/05/11 03:51:58;;;;;;;4.20;3.90;;;11.60;99.90;;;;;;4975916;28;20410;-76
2023/05/11 03:54:26;;;;;;;3.20;3.00;;;11.60;99.90;;;;;;4975692;28;20225;-75
2023/05/11 03:56:53;;;;;;;3.20;3.00;;;11.60;99.90;;;;;;4993067;28;20203;-76
2023/05/11 03:59:20;;;;;;;3.30;3.10;;;11.60;99.90;;;;;;4992887;28;20195;-76
2023/05/11 04:01:51;;;;;;;6.13;5.70;;;11.50;99.90;;;;;;4992851;28;20203;-76
2023/05/11 04:04:18;;;;;;;3.53;3.10;;;11.50;99.90;;;;;;4975264;28;20237;-76
2023/05/11 04:06:45;;;;;;;3.70;3.50;;;11.50;99.90;;;;;;4975420;28;20237;-75
2023/05/11 04:09:16;;;;;;;5.67;5.37;;;11.60;99.90;;;;;;4975584;28;20200;-76
2023/05/11 04:11:43;;;;;;;3.90;3.60;;;11.50;99.90;;;;;;4980885;28;20241;-75
2023/05/11 04:14:10;;;;;;;2.87;2.73;;;11.60;99.90;;;;;;4992504;28;20605;-76
2023/05/11 04:16:36;;;;;;;3.83;3.63;;;11.50;99.90;;;;;;4975421;28;20196;-76
2023/05/11 04:19:05;;;;;;;4.70;4.23;;;11.60;99.90;;;;;;4975284;28;20654;-76
2023/05/11 04:21:32;;;;;;;3.90;3.63;;;11.60;99.90;;;;;;4981149;28;20201;-76
2023/05/11 04:23:59;;;;;;;3.27;3.07;;;11.50;99.90;;;;;;4992481;28;20301;-75
2023/05/11 04:26:26;;;;;;;3.17;2.97;;;11.50;99.90;;;;;;4974966;28;20219;-76
2023/05/11 04:28:53;;;;;;;3.67;3.47;;;11.50;99.90;;;;;;4974735;28;20229;-76
2023/05/11 04:31:20;;;;;;;5.30;5.00;;;11.60;99.90;;;;;;4992177;28;20641;-75
2023/05/11 04:33:48;;;;;;;4.00;3.80;;;11.50;99.90;;;;;;4974666;28;20314;-76
2023/05/11 04:36:17;;;;;;;6.47;6.00;;;11.50;99.90;;;;;;4974888;28;20203;-75
2023/05/11 04:38:45;;;;;;;2.60;2.50;;;11.50;99.90;;;;;;4974747;28;20262;-76
2023/05/11 04:41:12;;;;;;;3.80;3.50;;;11.50;99.90;;;;;;4979513;28;20211;-75
2023/05/11 04:43:40;;;;;;;4.60;4.30;;;11.50;99.90;;;;;;4982419;28;20216;-76
2023/05/11 04:46:09;;;;;;;4.33;4.10;;;11.60;99.90;;;;;;4974665;28;20201;-76
2023/05/11 04:48:35;;;;;;;4.80;4.40;;;11.50;99.90;;;;;;4974662;28;20729;-76
2023/05/11 04:51:04;;;;;;;5.13;4.83;;;11.60;99.90;;;;;;4977028;28;20204;-76
2023/05/11 04:53:33;;;;;;;3.97;3.67;;;11.60;99.90;;;;;;4974415;28;20604;-76
2023/05/11 04:56:00;;;;;;;6.83;6.33;;;11.60;99.90;;;;;;4974551;28;20640;-76
2023/05/11 04:58:27;;;;;;;3.37;3.17;;;11.60;99.90;;;;;;4974571;28;20204;-76
2023/05/11 05:00:54;;;;;;;4.10;3.80;;;11.60;99.90;;;;;;4977087;28;20218;-75
2023/05/11 05:03:21;;;;;;;7.40;6.90;;;11.60;99.90;;;;;;4979067;28;20251;-79
2023/05/11 05:05:49;;;;;;;5.40;4.90;;;11.60;99.90;;;;;;4990699;28;20197;-76
2023/05/11 05:08:17;;;;;;;6.17;5.67;;;11.70;99.90;;;;;;4991188;28;20248;-75
2023/05/11 05:10:47;;;;;;;4.10;3.80;;;11.70;99.90;;;;;;4976229;28;20692;-75
2023/05/11 05:13:15;;;;;;;9.93;9.33;;;11.70;99.90;;;;;;4982878;28;20650;-75
2023/05/11 05:15:42;;;;;;;4.33;4.03;;;11.70;99.90;;;;;;4974598;28;20204;-76
2023/05/11 05:18:09;;;;;;;4.47;3.10;;;11.80;99.90;;;;;;4974409;28;20228;-76
2023/05/11 05:20:36;;;;;;;7.00;6.50;;;11.80;99.90;;;;;;4973348;28;20211;-76
2023/05/11 05:23:03;;;;;;;6.80;6.40;;;11.90;99.90;;;;;;4977918;28;20245;-76
2023/05/11 05:25:30;;;;;;;3.73;3.23;;;11.90;99.90;;;;;;4995472;28;20205;-76
2023/05/11 05:27:58;;;;;;;3.10;2.90;;;11.90;99.90;;;;;;4971946;28;20214;-75
2023/05/11 05:30:26;;;;;;;2.63;2.53;;;12.00;99.90;;;;;;4973943;28;20250;-75
2023/05/11 05:32:53;;;;;;;3.23;2.90;;;12.00;99.90;;;;;;4973598;28;20197;-75
2023/05/11 05:35:20;;;;;;;2.90;2.70;;;12.00;99.90;;;;;;4973736;28;20226;-75
2023/05/11 05:37:48;;;;;;;7.47;7.07;;;12.00;99.90;;;;;;4977638;28;20636;-75
2023/05/11 05:40:16;;;;;;;6.60;6.20;;;12.10;99.90;;;;;;4979776;28;20795;-75
2023/05/11 05:42:47;;;;;;;6.07;5.73;;;12.10;99.90;;;;;;4985532;28;20203;-79
2023/05/11 05:45:20;;;;;;;6.67;6.27;;;12.20;99.90;;;;;;4990365;28;20211;-76
2023/05/11 05:47:48;;;;;;;2.90;2.70;;;12.20;99.90;;;;;;4980420;28;20731;-79
2023/05/11 05:50:16;;;;;;;2.90;2.70;;;12.20;99.90;;;;;;4987554;28;20280;-77
2023/05/11 05:52:43;;;;;;;3.17;2.97;;;12.20;99.90;;;;;;4978943;28;20239;-78
2023/05/11 05:55:11;;;;;;;2.90;2.70;;;12.30;99.90;;;;;;4990021;28;20209;-77
2023/05/11 05:57:39;;;;;;;2.80;2.60;;;12.30;99.90;;;;;;4990164;28;20200;-78
2023/05/11 06:00:09;;;;;;;5.10;4.80;;;12.30;99.90;;;;;;4990759;28;20291;-79
2023/05/11 06:02:43;;;;;;;3.17;2.97;;;12.30;99.90;;;;;;4994046;28;20228;-77
2023/05/11 06:05:20;;;;;;;3.37;2.90;;;12.40;99.90;;;;;;4990279;28;20201;-77
2023/05/11 06:07:47;;;;;;;3.03;2.80;;;12.40;99.90;;;;;;4977663;28;20236;-77
2023/05/11 06:10:14;;;;;;;2.90;2.70;;;12.50;99.90;;;;;;4995303;28;20266;-77
2023/05/11 06:12:40;;;;;;;3.00;2.80;;;12.50;99.90;;;;;;4969859;28;20261;-77
2023/05/11 06:15:08;;;;;;;3.63;3.40;;;12.60;99.90;;;;;;4985769;28;20677;-79
2023/05/11 06:17:38;;;;;;;3.13;2.93;;;12.60;99.90;;;;;;4993008;28;20208;-78
2023/05/11 06:20:08;;;;;;;3.57;3.10;;;12.70;99.90;;;;;;4990621;28;20207;-78
2023/05/11 06:22:35;;;;;;;2.73;2.60;;;12.70;99.90;;;;;;4988778;28;20256;-76
2023/05/11 06:25:04;;;;;;;5.20;4.80;;;12.80;99.90;;;;;;4986659;28;20224;-76
2023/05/11 06:27:30;;;;;;;4.87;4.60;;;12.80;99.90;;;;;;4989769;28;20594;-77
2023/05/11 06:29:58;;;;;;;5.10;4.80;;;12.80;99.90;;;;;;4987085;28;20209;-77
2023/05/11 06:32:27;;;;;;;6.27;5.97;;;12.80;99.90;;;;;;4996985;28;20224;-77
2023/05/11 06:34:55;;;;;;;5.00;4.70;;;12.90;99.90;;;;;;4994684;28;20225;-78
2023/05/11 06:37:25;;;;;;;4.57;4.37;;;12.90;99.90;;;;;;5000763;28;20193;-78
2023/05/11 06:39:52;;;;;;;5.90;5.50;;;12.90;99.90;;;;;;4995281;28;20216;-78
2023/05/11 06:42:19;;;;;;;5.30;5.00;;;13.00;99.90;;;;;;4997438;28;20217;-78
2023/05/11 06:44:46;;;;;;;5.37;4.90;;;13.00;99.90;;;;;;4997813;28;20217;-79
2023/05/11 06:47:13;;;;;;;5.67;5.27;;;13.00;99.90;;;;;;4996894;28;20210;-80
2023/05/11 06:49:41;;;;;;;5.30;4.90;;;13.00;99.90;;;;;;4995913;28;20191;-78
2023/05/11 06:52:08;;;;;;;4.90;4.60;;;13.00;99.90;;;;;;4995410;28;20206;-78
2023/05/11 06:54:36;;;;;;;5.37;5.00;;;13.00;99.90;;;;;;4994683;28;20657;-77
2023/05/11 06:57:03;;;;;;;5.20;4.90;;;13.00;99.90;;;;;;4994949;28;20621;-77
2023/05/11 06:59:31;;;;;;;4.60;4.30;;;13.10;99.90;;;;;;4992217;28;20201;-77
2023/05/11 07:01:58;;;;;;;4.67;4.47;;;13.20;99.90;;;;;;4993817;28;20189;-77
2023/05/11 07:04:24;;;;;;;5.80;5.40;;;13.30;99.90;;;;;;4994599;28;20226;-77
2023/05/11 07:06:51;;;;;;;5.53;5.13;;;13.30;99.90;;;;;;4995278;28;20247;-77
2023/05/11 07:09:18;;;;;;;4.80;4.50;;;13.30;99.90;;;;;;4994874;28;20793;-77
2023/05/11 07:11:46;;;;;;;6.20;5.70;;;13.30;99.90;;;;;;4994823;28;20201;-77
2023/05/11 07:14:13;;;;;;;7.40;6.90;;;13.30;99.90;;;;;;4995160;28;20641;-77
2023/05/11 07:16:40;;;;;;;6.03;5.63;;;13.40;99.90;;;;;;4989016;28;20202;-77
2023/05/11 07:19:08;;;;;;;3.40;3.20;;;13.50;99.90;;;;;;5001123;28;20553;-78
2023/05/11 07:21:35;;;;;;;5.20;4.90;;;13.60;99.90;;;;;;5003528;28;20214;-77
2023/05/11 07:24:02;;;;;;;5.90;5.50;;;13.60;99.90;;;;;;4992965;28;20239;-78
2023/05/11 07:26:29;;;;;;;2.80;2.63;;;13.60;99.90;;;;;;4994994;28;20202;-77
2023/05/11 07:28:58;;;;;;;3.67;3.37;;;13.70;99.90;;;;;;4992273;28;20710;-78
2023/05/11 07:31:24;;;;;;;3.20;2.93;;;13.70;99.90;;;;;;4995433;28;20249;-79
2023/05/11 07:33:52;;;;;;;2.90;2.70;;;13.70;99.90;;;;;;4993727;28;20224;-78
2023/05/11 07:36:18;;;;;;;3.40;2.90;;;13.70;99.90;;;;;;4994447;28;20207;-78
2023/05/11 07:38:45;;;;;;;2.90;2.80;;;13.80;99.90;;;;;;4991080;28;20261;-78
2023/05/11 07:41:12;;;;;;;3.13;2.83;;;13.90;99.90;;;;;;4995189;28;20713;-77
2023/05/11 07:43:39;;;;;;;3.17;2.93;;;13.90;99.90;;;;;;4994701;28;20217;-78
2023/05/11 07:46:07;;;;;;;2.90;2.70;;;13.90;99.90;;;;;;4994518;28;20675;-77
2023/05/11 07:48:34;;;;;;;2.90;2.70;;;14.00;99.90;;;;;;4993722;28;20220;-77
2023/05/11 07:51:02;;;;;;;2.60;2.50;;;14.00;99.90;;;;;;4993745;28;20273;-77
2023/05/11 07:53:28;;;;;;;2.90;2.70;;;13.90;99.90;;;;;;4992893;28;20219;-76
2023/05/11 07:55:55;;;;;;;3.80;3.50;;;13.90;99.90;;;;;;4993846;28;20207;-77
2023/05/11 07:58:22;;;;;;;2.90;2.70;;;13.90;99.90;;;;;;4978211;28;20207;-78
2023/05/11 08:00:49;;;;;;;2.60;2.50;;;14.00;99.90;;;;;;4978214;28;20205;-78
2023/05/11 08:03:17;;;;;;;2.73;2.50;;;14.00;99.90;;;;;;4996254;28;20223;-77
2023/05/11 08:05:43;;;;;;;2.90;2.70;;;14.10;99.90;;;;;;4997191;28;20205;-78
2023/05/11 08:08:10;;;;;;;2.60;2.50;;;14.20;99.90;;;;;;4995555;28;20261;-78
2023/05/11 08:10:37;;;;;;;2.90;2.70;;;14.20;99.90;;;;;;4995675;28;20254;-77
2023/05/11 08:13:04;;;;;;;2.80;2.60;;;14.10;99.90;;;;;;4994664;28;20231;-78
2023/05/11 08:15:31;;;;;;;3.00;2.80;;;14.20;99.90;;;;;;4995979;28;20198;-77
2023/05/11 08:17:58;;;;;;;2.90;2.70;;;14.30;99.90;;;;;;4977445;28;20576;-77
2023/05/11 08:20:26;;;;;;;4.80;4.43;;;14.20;99.90;;;;;;4993514;28;20681;-77
2023/05/11 08:22:53;;;;;;;3.30;3.10;;;14.20;99.90;;;;;;4976346;28;20560;-77
2023/05/11 08:25:20;;;;;;;2.70;2.50;;;14.30;99.90;;;;;;4993496;28;20200;-77
2023/05/11 08:27:47;;;;;;;3.00;2.70;;;14.40;99.90;;;;;;4976261;28;20255;-77
2023/05/11 08:30:14;;;;;;;3.10;3.00;;;14.40;99.90;;;;;;4994102;28;20201;-80
2023/05/11 08:32:41;;;;;;;3.70;3.50;;;14.50;99.90;;;;;;4986797;28;20201;-79
2023/05/11 08:35:09;;;;;;;3.17;2.90;;;14.50;99.90;;;;;;4988825;28;20205;-79
2023/05/11 08:37:37;;;;;;;3.43;2.70;;;14.40;99.90;;;;;;4995806;28;20206;-79
2023/05/11 08:40:04;;;;;;;3.10;2.70;;;14.50;99.90;;;;;;4990243;28;20239;-80
2023/05/11 08:42:34;;;;;;;2.80;2.60;;;14.50;99.90;;;;;;4970382;28;20213;-77
2023/05/11 08:45:02;;;;;;;4.57;4.27;;;14.40;99.90;;;;;;4990044;28;20302;-77
2023/05/11 08:47:29;;;;;;;6.00;5.50;;;14.40;99.90;;;;;;4991724;28;20684;-77
2023/05/11 08:49:57;;;;;;;5.90;5.40;;;14.50;99.90;;;;;;4995410;28;20565;-82
2023/05/11 08:52:25;;;;;;;5.83;5.53;;;14.60;99.90;;;;;;4986715;28;20209;-78
2023/05/11 08:54:53;;;;;;;6.30;5.90;;;14.60;99.90;;;;;;4987039;28;20227;-79
2023/05/11 08:57:21;;;;;;;3.00;2.80;;;14.70;99.90;;;;;;4995589;28;20194;-78
2023/05/11 08:59:49;;;;;;;3.20;3.00;;;14.70;99.90;;;;;;4995461;28;20193;-78
2023/05/11 09:02:19;;;;;;;6.10;5.70;;;14.80;99.90;;;;;;4978250;28;20200;-78
2023/05/11 09:04:46;;;;;;;4.73;4.43;;;14.90;99.90;;;;;;4982146;28;20258;-78
2023/05/11 09:07:16;;;;;;;3.70;3.40;;;14.80;99.90;;;;;;5000945;28;20228;-78
2023/05/11 09:09:43;;;;;;;3.00;2.80;;;14.80;99.90;;;;;;4996091;28;20221;-78
2023/05/11 09:12:12;;;;;;;2.43;2.33;;;14.80;99.90;;;;;;4989730;28;20262;-78
2023/05/11 09:14:38;;;;;;;3.03;2.70;;;14.90;99.90;;;;;;4993077;28;20255;-78
2023/05/11 09:17:05;;;;;;;4.70;4.40;;;14.80;99.90;;;;;;4997662;28;20197;-78
2023/05/11 09:19:32;;;;;;;6.10;5.70;;;14.70;99.90;;;;;;4995348;28;20200;-77
2023/05/11 09:21:59;;;;;;;6.30;5.90;;;14.60;99.90;;;;;;4995189;28;20207;-78
2023/05/11 09:24:26;;;;;;;6.87;6.30;;;14.70;99.90;;;;;;4986378;28;20278;-79
2023/05/11 09:27:07;;;;;;;4.90;4.70;;;14.70;99.90;;;;;;4993530;28;20620;-79
2023/05/11 09:29:35;;;;;;;7.00;6.60;;;14.70;99.90;;;;;;4999984;28;20676;-79
2023/05/11 09:32:02;;;;;;;2.70;2.60;;;14.70;99.90;;;;;;4999681;28;20204;-78
2023/05/11 09:34:29;;;;;;;2.40;2.30;;;14.70;99.90;;;;;;4978607;28;20714;-78
2023/05/11 09:36:57;;;;;;;7.20;6.80;;;14.60;99.90;;;;;;4989237;28;20792;-78
2023/05/11 09:39:31;;;;;;;2.60;2.50;;;14.50;99.90;;;;;;4996351;28;20226;-78
2023/05/11 09:42:15;;;;;;;3.10;2.60;;;14.50;99.90;;;;;;4994185;28;20208;-81
2023/05/11 09:44:44;;;;;;;3.90;2.67;;;14.40;99.90;;;;;;4989829;28;20288;-79
2023/05/11 09:47:13;;;;;;;2.60;2.50;;;14.30;99.90;;;;;;4995044;28;20211;-79
2023/05/11 09:49:42;;;;;;;4.67;4.27;;;14.20;99.90;;;;;;4998489;28;20302;-80
2023/05/11 09:52:10;;;;;;;2.93;2.73;;;14.20;99.90;;;;;;5003634;28;20282;-80
2023/05/11 09:54:43;;;;;;;2.87;2.73;;;14.10;99.90;;;;;;4994143;28;20251;-79
2023/05/11 09:57:24;;;;;;;2.83;2.60;;;14.00;99.90;;;;;;4997670;28;20202;-79
2023/05/11 09:59:52;;;;;;;6.13;5.80;;;13.90;99.90;;;;;;4990251;28;20191;-79
2023/05/11 10:02:22;;;;;;;8.90;8.40;;;14.00;99.90;;;;;;4997972;28;20232;-79
2023/05/11 10:04:49;;;;;;;2.87;2.67;;;13.90;99.90;;;;;;4990279;28;20259;-79
2023/05/11 10:07:27;;;;;;;2.97;2.77;;;13.80;99.90;;;;;;4994954;28;20199;-79
2023/05/11 10:09:55;;;;;;;9.07;8.47;;;13.60;99.90;;;;;;4990354;28;20284;-79
2023/05/11 10:12:26;;;;;;;7.23;6.50;;;13.40;99.90;;;;;;4988611;28;20283;-78
2023/05/11 10:14:56;;;;;;;9.20;8.70;;;13.50;99.90;;;;;;4978046;28;20237;-78
2023/05/11 10:17:22;;;;;;;3.50;3.30;;;13.70;99.90;;;;;;4993843;28;20201;-78
2023/05/11 10:19:50;;;;;;;3.23;3.03;;;13.70;99.90;;;;;;4989023;28;20673;-78
2023/05/11 10:22:17;;;;;;;3.70;3.00;;;13.90;99.90;;;;;;5007013;28;20205;-78
2023/05/11 10:24:44;;;;;;;3.20;3.00;;;14.00;99.90;;;;;;4993970;28;20228;-79
2023/05/11 10:27:12;;;;;;;3.20;2.90;;;14.20;99.90;;;;;;4989482;28;20209;-79
2023/05/11 10:29:39;;;;;;;3.30;3.10;;;14.20;99.90;;;;;;4998332;28;20223;-79
2023/05/11 10:32:08;;;;;;;6.73;6.33;;;14.40;99.90;;;;;;4989418;28;20259;-79
2023/05/11 10:34:38;;;;;;;5.80;5.40;;;14.40;99.90;;;;;;4997787;28;20245;-81
2023/05/11 10:37:06;;;;;;;6.43;6.03;;;14.40;99.90;;;;;;4989643;28;20219;-80
2023/05/11 10:39:36;;;;;;;9.03;8.53;;;14.30;99.90;;;;;;4982914;28;20200;-79
2023/05/11 10:42:24;;;;;;;2.63;2.53;;;14.30;99.90;;;;;;4994635;28;20212;-79
2023/05/11 10:44:59;;;;;;;5.83;5.53;;;14.50;99.90;;;;;;4982313;28;20222;-78
2023/05/11 10:48:02;;;;;;;8.13;7.63;;;14.40;99.90;;;;;;4994020;28;20202;-78
2023/05/11 10:51:00;;;;;;;8.70;8.20;;;14.50;99.90;;;;;;4971988;28;20233;-78
2023/05/11 10:53:49;;;;;;;9.00;8.40;;;14.50;99.90;;;;;;4990714;28;20225;-79
2023/05/11 10:56:43;;;;;;;8.17;7.70;;;14.50;99.90;;;;;;4990619;28;20220;-78
2023/05/11 10:59:26;;;;;;;8.03;7.63;;;14.60;99.90;;;;;;5001549;28;21029;-80
2023/05/11 11:01:57;;;;;;;6.87;6.47;;;14.70;99.90;;;;;;4997337;28;20203;-81
2023/05/11 11:04:25;;;;;;;7.93;7.47;;;14.80;99.90;;;;;;4997628;28;20268;-81
2023/05/11 11:07:05;;;;;;;2.87;2.50;;;14.70;99.90;;;;;;4991193;28;20673;-81
2023/05/11 11:09:51;;;;;;;5.80;5.47;;;14.80;99.90;;;;;;4987650;28;20223;-80
2023/05/11 11:12:19;;;;;;;6.90;6.40;;;15.00;99.90;;;;;;4998903;28;20203;-82
2023/05/11 11:14:57;;;;;;;2.43;2.33;;;15.20;99.90;;;;;;5019728;22;20233;-84
2023/05/11 11:17:27;;;;;;;2.90;2.63;;;15.20;99.90;;;;;;4979192;28;20273;-80
2023/05/11 11:19:56;;;;;;;5.20;4.90;;;15.10;99.90;;;;;;4991765;28;20209;-80
2023/05/11 11:22:46;;;;;;;3.23;3.03;;;15.20;99.90;;;;;;5002118;28;20209;-80
2023/05/11 11:25:13;;;;;;;2.33;2.23;;;15.10;99.90;;;;;;4975210;28;20249;-80
2023/05/11 11:27:57;;;;;;;2.40;2.30;;;15.20;99.90;;;;;;4977621;28;20224;-80
2023/05/11 11:30:24;;;;;;;2.40;2.30;;;15.30;99.90;;;;;;4976753;28;20233;-80
2023/05/11 11:32:52;;;;;;;2.90;2.30;;;15.20;99.90;;;;;;4969890;28;20194;-80
2023/05/11 11:35:46;;;;;;;2.57;2.30;;;15.40;99.90;;;;;;4974806;28;20228;-80
2023/05/11 11:38:14;;;;;;;3.30;2.20;;;15.40;99.90;;;;;;4971414;28;20265;-80
2023/05/11 11:40:42;;;;;;;4.80;4.50;;;15.50;99.90;;;;;;4974012;28;20690;-80
2023/05/11 11:43:13;;;;;;;3.40;3.30;;;15.50;99.90;;;;;;4974294;28;20290;-80
2023/05/11 11:45:49;;;;;;;4.23;2.47;;;15.60;99.90;;;;;;4972541;28;20202;-81
2023/05/11 11:48:20;;;;;;;5.97;5.57;;;15.60;99.90;;;;;;4973662;28;20198;-80
2023/05/11 11:50:49;;;;;;;5.67;5.37;;;15.70;99.90;;;;;;4960167;28;20304;-80
2023/05/11 11:54:07;;;;;;;5.33;4.97;;;15.80;99.90;;;;;;4969414;28;20199;-85
2023/05/11 11:56:40;;;;;;;2.03;2.00;;;15.80;99.90;;;;;;4971707;28;20226;-82
2023/05/11 11:59:10;;;;;;;2.47;2.30;;;16.10;99.90;;;;;;4953241;28;20206;-79
2023/05/11 12:01:44;;;;;;;2.40;2.30;;;16.30;99.90;;;;;;4964257;28;20228;-80
2023/05/11 12:04:38;;;;;;;2.50;2.40;;;16.00;99.90;;;;;;4974460;28;20222;-79
2023/05/11 12:07:12;;;;;;;2.60;2.47;;;16.00;99.90;;;;;;4968643;28;20588;-79
2023/05/11 12:09:44;;;;;;;4.60;4.30;;;16.20;99.90;;;;;;4966478;28;20224;-79
2023/05/11 12:12:11;;;;;;;5.30;5.00;;;16.20;99.90;;;;;;4966672;28;20221;-79
2023/05/11 12:14:40;;;;;;;5.90;5.60;;;16.30;99.90;;;;;;4967867;28;20315;-80
2023/05/11 12:17:14;;;;;;;7.27;6.87;;;16.30;99.90;;;;;;4978364;28;20226;-80
2023/05/11 12:19:42;;;;;;;7.00;6.63;;;16.50;99.90;;;;;;4979431;28;20199;-81
2023/05/11 12:22:13;;;;;;;3.77;3.57;;;16.50;99.90;;;;;;4987256;28;20213;-81
2023/05/11 12:24:41;;;;;;;2.97;2.70;;;16.50;99.90;;;;;;4966860;28;20313;-80
2023/05/11 12:27:09;;;;;;;2.40;2.30;;;16.10;99.90;;;;;;4983847;28;20236;-80
2023/05/11 12:29:36;;;;;;;3.47;3.10;;;16.20;99.90;;;;;;4983547;28;20244;-81
2023/05/11 12:32:03;;;;;;;2.37;2.23;;;16.20;99.90;;;;;;4983179;28;20827;-80
2023/05/11 12:34:29;;;;;;;3.20;2.53;;;16.20;99.90;;;;;;4982689;28;20222;-81
2023/05/11 12:36:58;;;;;;;2.50;2.30;;;16.00;99.90;;;;;;4983599;28;20198;-80
2023/05/11 12:39:27;;;;;;;3.90;3.63;;;15.90;99.90;;;;;;4977002;28;20199;-80
2023/05/11 12:41:55;;;;;;;2.30;2.20;;;16.00;99.90;;;;;;4981692;28;20263;-80
2023/05/11 12:44:23;;;;;;;2.93;2.67;;;16.00;99.90;;;;;;4977231;28;20222;-80
2023/05/11 12:46:51;;;;;;;2.97;2.67;;;15.80;99.90;;;;;;4982144;28;20562;-80
2023/05/11 12:49:19;;;;;;;2.80;2.60;;;15.70;99.90;;;;;;4977419;28;20245;-81
2023/05/11 12:51:51;;;;;;;3.13;2.60;;;15.60;99.90;;;;;;4987864;28;20711;-79
2023/05/11 12:54:28;;;;;;;5.33;4.93;;;15.60;99.90;;;;;;4974731;28;20260;-79
2023/05/11 12:56:55;;;;;;;2.67;2.47;;;15.30;99.90;;;;;;4981326;28;20198;-80
2023/05/11 12:59:36;;;;;;;6.67;6.27;;;15.30;99.90;;;;;;4981112;28;20241;-80